Time,TemperatureF,DewpointF,PressureIn,WindDirection,WindDirectionDegrees,WindSpeedMPH,WindSpeedGustMPH,Humidity,HourlyPrecipIn,Conditions,Clouds,dailyrainin,SolarRadiationWatts/m^2,SoftwareType,DateUTC
2014-12-22 00:12:00,23.0,10.0,-100.00,North,0,7.0,13.0,58,0.00,,,0.00,0.000000,,2014-12-22 07:12:00,
2014-12-22 00:22:00,23.0,10.0,-100.00,North,0,7.0,13.0,58,0.00,,,0.00,0.000000,,2014-12-22 07:22:00,
2014-12-22 00:32:00,23.0,10.0,-100.00,North,0,7.0,13.0,58,0.00,,,0.00,0.000000,,2014-12-22 07:32:00,
2014-12-22 00:42:00,23.0,10.0,-100.00,North,0,7.0,13.0,58,0.00,,,0.00,0.000000,,2014-12-22 07:42:00,
2014-12-22 01:12:00,22.0,11.0,-100.00,North,0,6.0,13.0,62,0.00,,,0.00,0.000000,,2014-12-22 08:12:00,
2014-12-22 01:22:00,22.0,11.0,-100.00,North,0,6.0,13.0,62,0.00,,,0.00,0.000000,,2014-12-22 08:22:00,
2014-12-22 01:32:00,22.0,11.0,-100.00,North,0,6.0,13.0,62,0.00,,,0.00,0.000000,,2014-12-22 08:32:00,
2014-12-22 01:42:00,22.0,11.0,-100.00,North,0,6.0,13.0,62,0.00,,,0.00,0.000000,,2014-12-22 08:42:00,
2014-12-22 02:12:00,21.0,7.0,-100.00,North,0,13.0,18.0,54,0.00,,,0.00,0.000000,,2014-12-22 09:12:00,
2014-12-22 02:22:00,21.0,7.0,-100.00,North,0,13.0,18.0,54,0.00,,,0.00,0.000000,,2014-12-22 09:22:00,
2014-12-22 02:33:00,21.0,7.0,-100.00,North,0,13.0,18.0,54,0.00,,,0.00,0.000000,,2014-12-22 09:33:00,
2014-12-22 02:43:00,21.0,7.0,-100.00,North,0,13.0,18.0,54,0.00,,,0.00,0.000000,,2014-12-22 09:43:00,
2014-12-22 03:12:00,21.0,9.0,-100.00,North,0,11.0,17.0,58,0.00,,,0.00,0.000000,,2014-12-22 10:12:00,
2014-12-22 03:23:00,21.0,9.0,-100.00,North,0,11.0,17.0,58,0.00,,,0.00,0.000000,,2014-12-22 10:23:00,
2014-12-22 03:33:00,21.0,9.0,-100.00,North,0,11.0,17.0,58,0.00,,,0.00,0.000000,,2014-12-22 10:33:00,
2014-12-22 03:43:00,21.0,9.0,-100.00,North,0,11.0,17.0,58,0.00,,,0.00,0.000000,,2014-12-22 10:43:00,
2014-12-22 04:12:00,19.0,7.0,-100.00,North,0,3.0,14.0,59,0.00,,,0.00,0.000000,,2014-12-22 11:12:00,
2014-12-22 04:22:00,19.0,7.0,-100.00,North,0,3.0,14.0,59,0.00,,,0.00,0.000000,,2014-12-22 11:22:00,
2014-12-22 04:33:00,19.0,7.0,-100.00,North,0,3.0,14.0,59,0.00,,,0.00,0.000000,,2014-12-22 11:33:00,
2014-12-22 04:43:00,19.0,7.0,-100.00,North,0,3.0,14.0,59,0.00,,,0.00,0.000000,,2014-12-22 11:43:00,
2014-12-22 05:12:00,20.0,5.0,-100.00,North,0,8.0,14.0,52,0.00,,,0.00,0.000000,,2014-12-22 12:12:00,
2014-12-22 05:22:00,20.0,5.0,-100.00,North,0,8.0,14.0,52,0.00,,,0.00,0.000000,,2014-12-22 12:22:00,
2014-12-22 05:32:00,20.0,5.0,-100.00,North,0,8.0,14.0,52,0.00,,,0.00,0.000000,,2014-12-22 12:32:00,
2014-12-22 05:42:00,20.0,5.0,-100.00,North,0,8.0,14.0,52,0.00,,,0.00,0.000000,,2014-12-22 12:42:00,
2014-12-22 06:12:00,21.0,6.0,-100.00,North,0,11.0,16.0,52,0.00,,,0.00,0.000000,,2014-12-22 13:12:00,
2014-12-22 06:22:00,21.0,6.0,-100.00,North,0,11.0,16.0,52,0.00,,,0.00,0.000000,,2014-12-22 13:22:00,
2014-12-22 06:32:00,21.0,6.0,-100.00,North,0,11.0,16.0,52,0.00,,,0.00,0.000000,,2014-12-22 13:32:00,
2014-12-22 06:42:00,21.0,6.0,-100.00,North,0,11.0,16.0,52,0.00,,,0.00,0.000000,,2014-12-22 13:42:00,
2014-12-22 07:12:00,21.0,8.0,-100.00,North,0,9.0,15.0,57,0.00,,,0.00,0.000000,,2014-12-22 14:12:00,
2014-12-22 07:22:00,21.0,8.0,-100.00,North,0,9.0,15.0,57,0.00,,,0.00,0.000000,,2014-12-22 14:22:00,
2014-12-22 07:32:00,21.0,8.0,-100.00,North,0,9.0,15.0,57,0.00,,,0.00,0.000000,,2014-12-22 14:32:00,
2014-12-22 07:42:00,21.0,8.0,-100.00,North,0,9.0,15.0,57,0.00,,,0.00,0.000000,,2014-12-22 14:42:00,
2014-12-22 08:12:00,20.0,7.0,-100.00,North,0,13.0,19.0,57,0.00,,,0.00,1.000000,,2014-12-22 15:12:00,
2014-12-22 08:22:00,20.0,7.0,-100.00,North,0,13.0,19.0,57,0.00,,,0.00,1.000000,,2014-12-22 15:22:00,
2014-12-22 08:33:00,20.0,7.0,-100.00,North,0,13.0,19.0,57,0.00,,,0.00,1.000000,,2014-12-22 15:33:00,
2014-12-22 08:44:00,20.0,7.0,-100.00,North,0,13.0,19.0,57,0.00,,,0.00,1.000000,,2014-12-22 15:44:00,
2014-12-22 09:13:00,20.0,9.0,-100.00,North,0,8.0,15.0,61,0.00,,,0.00,32.000000,,2014-12-22 16:13:00,
2014-12-22 09:23:00,20.0,9.0,-100.00,North,0,8.0,15.0,61,0.00,,,0.00,32.000000,,2014-12-22 16:23:00,
2014-12-22 09:33:00,20.0,9.0,-100.00,North,0,8.0,15.0,61,0.00,,,0.00,32.000000,,2014-12-22 16:33:00,
2014-12-22 09:44:00,20.0,9.0,-100.00,North,0,8.0,15.0,61,0.00,,,0.00,32.000000,,2014-12-22 16:44:00,
2014-12-22 10:12:00,21.0,8.0,-100.00,North,0,8.0,19.0,56,0.00,,,0.00,187.000000,,2014-12-22 17:12:00,
2014-12-22 10:22:00,21.0,8.0,-100.00,North,0,8.0,19.0,56,0.00,,,0.00,187.000000,,2014-12-22 17:22:00,
2014-12-22 10:32:00,21.0,8.0,-100.00,North,0,8.0,19.0,56,0.00,,,0.00,187.000000,,2014-12-22 17:32:00,
2014-12-22 10:42:00,21.0,8.0,-100.00,North,0,8.0,19.0,56,0.00,,,0.00,187.000000,,2014-12-22 17:42:00,
2014-12-22 11:13:00,19.0,14.0,-100.00,North,0,11.0,15.0,80,0.00,,,0.00,128.000000,,2014-12-22 18:13:00,
2014-12-22 11:23:00,19.0,14.0,-100.00,North,0,11.0,15.0,80,0.00,,,0.00,128.000000,,2014-12-22 18:23:00,
2014-12-22 11:32:00,19.0,14.0,-100.00,North,0,11.0,15.0,80,0.00,,,0.00,128.000000,,2014-12-22 18:32:00,
2014-12-22 11:43:00,19.0,14.0,-100.00,North,0,11.0,15.0,80,0.00,,,0.00,128.000000,,2014-12-22 18:43:00,
2014-12-22 12:12:00,21.0,9.0,-100.00,North,0,8.0,15.0,60,0.00,,,0.00,163.000000,,2014-12-22 19:12:00,
2014-12-22 12:22:00,21.0,9.0,-100.00,North,0,8.0,15.0,60,0.00,,,0.00,163.000000,,2014-12-22 19:22:00,
2014-12-22 12:32:00,21.0,9.0,-100.00,North,0,8.0,15.0,60,0.00,,,0.00,163.000000,,2014-12-22 19:32:00,
2014-12-22 12:42:00,21.0,9.0,-100.00,North,0,8.0,15.0,60,0.00,,,0.00,163.000000,,2014-12-22 19:42:00,
2014-12-22 13:12:00,18.0,15.0,-100.00,North,0,5.0,13.0,86,0.00,,,0.00,125.000000,,2014-12-22 20:12:00,
2014-12-22 13:22:00,18.0,15.0,-100.00,North,0,5.0,13.0,86,0.00,,,0.00,125.000000,,2014-12-22 20:22:00,
2014-12-22 13:32:00,18.0,15.0,-100.00,North,0,5.0,13.0,86,0.00,,,0.00,125.000000,,2014-12-22 20:32:00,
2014-12-22 13:42:00,18.0,15.0,-100.00,North,0,5.0,13.0,86,0.00,,,0.00,125.000000,,2014-12-22 20:42:00,
2014-12-22 14:12:00,18.0,13.0,-100.00,North,0,6.0,15.0,81,0.00,,,0.00,87.000000,,2014-12-22 21:12:00,
2014-12-22 14:22:00,18.0,13.0,-100.00,North,0,6.0,15.0,81,0.00,,,0.00,87.000000,,2014-12-22 21:22:00,
2014-12-22 14:33:00,18.0,13.0,-100.00,North,0,6.0,15.0,81,0.00,,,0.00,87.000000,,2014-12-22 21:33:00,
2014-12-22 14:44:00,18.0,13.0,-100.00,North,0,6.0,15.0,81,0.00,,,0.00,87.000000,,2014-12-22 21:44:00,
2014-12-22 15:13:00,18.0,15.0,-100.00,North,0,10.0,21.0,89,0.00,,,0.00,40.000000,,2014-12-22 22:13:00,
2014-12-22 15:23:00,18.0,15.0,-100.00,North,0,10.0,21.0,89,0.00,,,0.00,40.000000,,2014-12-22 22:23:00,
2014-12-22 15:33:00,18.0,15.0,-100.00,North,0,10.0,21.0,89,0.00,,,0.00,40.000000,,2014-12-22 22:33:00,
2014-12-22 15:42:00,18.0,15.0,-100.00,North,0,10.0,21.0,89,0.00,,,0.00,40.000000,,2014-12-22 22:42:00,
2014-12-22 16:12:00,17.0,13.0,-100.00,North,0,12.0,20.0,85,0.00,,,0.00,33.000000,,2014-12-22 23:12:00,
2014-12-22 16:22:00,17.0,13.0,-100.00,North,0,12.0,20.0,85,0.00,,,0.00,33.000000,,2014-12-22 23:22:00,
2014-12-22 16:33:00,17.0,13.0,-100.00,North,0,12.0,20.0,85,0.00,,,0.00,33.000000,,2014-12-22 23:33:00,
2014-12-22 16:42:00,17.0,13.0,-100.00,North,0,12.0,20.0,85,0.00,,,0.00,33.000000,,2014-12-22 23:42:00,
2014-12-22 17:12:00,17.0,15.0,-100.00,North,0,9.0,14.0,90,0.00,,,0.00,6.000000,,2014-12-23 00:12:00,
2014-12-22 17:22:00,17.0,15.0,-100.00,North,0,9.0,14.0,90,0.00,,,0.00,6.000000,,2014-12-23 00:22:00,
2014-12-22 17:32:00,17.0,15.0,-100.00,North,0,9.0,14.0,90,0.00,,,0.00,6.000000,,2014-12-23 00:32:00,
2014-12-22 17:42:00,17.0,15.0,-100.00,North,0,9.0,14.0,90,0.00,,,0.00,6.000000,,2014-12-23 00:42:00,
2014-12-22 18:12:00,17.0,13.0,-100.00,North,0,15.0,28.0,84,0.00,,,0.00,0.000000,,2014-12-23 01:12:00,